Algoma, Mississippi
Current Conditions -  °F | °C
As of 1:53 PM on Friday 19 Dec 2014 (Local Time) from KTUP Reporting Station
Overcast Overcast  
Wind Chill: 41°   Ceiling: 4100
Heat Index: 46°   Visibility: 10mi
Dew Point: 37°   Wind: 9mph
Humidity: 71%   Direction: 30°NNE
Pressure: 30.2"   Gusts: NA
Location:  34.18°N, 89.03°W
Report Text: KTUP 191953Z 03008KT 10SM OVC041 08/03 A3020 RMK AO2 SLP226 T00780028
Loading
Personal Weather Stations






























Interactive Weather Map New forecast layout! Learn more

10-Day Weather Forecast

Advertisements
Track Severe Weather on mobile